Time;durP1;ratioP1;P1;durP2;ratioP2;P2;SDS_P1;SDS_P2;PMS_P1;PMS_P2;Temp;Humidity;BMP_temperature;BMP_pressure;BME280_temperature;BME280_humidity;BME280_pressure;Samples;Min_cycle;Max_cycle;Signal;HPM_P1;HPM_P2
2022/07/14 00:01:57;;;;;;;5.67;2.67;;;23.40;99.90;;;;;;5010019;28;21040;-74
2022/07/14 00:04:23;;;;;;;4.20;2.20;;;23.40;99.90;;;;;;5004115;28;20505;-74
2022/07/14 00:06:51;;;;;;;2.83;2.63;;;23.40;99.90;;;;;;5009474;28;20495;-74
2022/07/14 00:09:18;;;;;;;2.43;2.03;;;23.30;99.90;;;;;;5005860;28;20961;-74
2022/07/14 00:11:45;;;;;;;3.07;2.50;;;23.40;99.90;;;;;;5009933;28;20488;-74
2022/07/14 00:14:11;;;;;;;2.20;1.97;;;23.40;99.90;;;;;;5008602;28;20882;-74
2022/07/14 00:16:38;;;;;;;2.80;2.00;;;23.30;99.90;;;;;;5014232;28;20536;-74
2022/07/14 00:19:04;;;;;;;2.23;1.93;;;23.30;99.90;;;;;;4990102;28;20458;-74
2022/07/14 00:21:31;;;;;;;2.10;2.00;;;23.40;99.90;;;;;;5001134;28;20947;-74
2022/07/14 00:23:59;;;;;;;2.80;2.10;;;23.20;99.80;;;;;;5007530;28;20455;-74
2022/07/14 00:26:26;;;;;;;2.10;1.87;;;23.20;99.70;;;;;;5013812;28;20494;-74
2022/07/14 00:28:52;;;;;;;2.80;2.00;;;23.20;99.60;;;;;;5010514;28;20447;-74
2022/07/14 00:31:19;;;;;;;3.40;2.13;;;23.20;99.60;;;;;;5006482;28;20459;-74
2022/07/14 00:33:46;;;;;;;3.53;2.10;;;23.20;99.60;;;;;;4999372;28;20451;-74
2022/07/14 00:36:12;;;;;;;2.33;2.07;;;23.10;99.40;;;;;;5005613;28;20478;-74
2022/07/14 00:38:39;;;;;;;2.23;2.03;;;23.10;99.40;;;;;;5010992;28;21148;-74
2022/07/14 00:41:07;;;;;;;2.07;1.97;;;23.10;99.30;;;;;;4994040;28;20463;-75
2022/07/14 00:43:34;;;;;;;1.90;1.80;;;23.10;99.40;;;;;;4993114;28;21045;-74
2022/07/14 00:46:00;;;;;;;2.00;1.90;;;23.00;99.50;;;;;;4994398;28;20491;-74
2022/07/14 00:48:27;;;;;;;3.10;1.90;;;23.00;99.70;;;;;;4994680;28;20451;-76
2022/07/14 00:50:54;;;;;;;5.43;2.07;;;23.00;99.70;;;;;;5008177;28;20450;-74
2022/07/14 00:53:21;;;;;;;4.70;2.20;;;22.90;99.70;;;;;;4998397;28;20461;-74
2022/07/14 00:55:48;;;;;;;2.63;2.43;;;22.90;99.80;;;;;;4994223;28;20463;-74
2022/07/14 00:58:16;;;;;;;2.23;2.10;;;22.90;99.70;;;;;;4998288;28;20954;-74
2022/07/14 01:00:43;;;;;;;2.10;2.00;;;22.90;99.90;;;;;;5007545;28;20463;-74
2022/07/14 01:03:09;;;;;;;5.57;2.50;;;22.80;99.80;;;;;;5004222;28;20501;-74
2022/07/14 01:05:36;;;;;;;2.33;2.13;;;22.80;99.90;;;;;;5004727;28;20869;-74
2022/07/14 01:08:03;;;;;;;4.70;2.23;;;22.80;99.90;;;;;;4994193;28;21026;-74
2022/07/14 01:10:30;;;;;;;3.03;2.50;;;22.80;99.90;;;;;;4994332;28;20542;-74
2022/07/14 01:13:00;;;;;;;2.80;2.20;;;22.80;99.90;;;;;;5005186;28;20456;-74
2022/07/14 01:15:28;;;;;;;8.57;2.00;;;22.80;99.90;;;;;;4996003;28;20466;-74
2022/07/14 01:17:55;;;;;;;2.37;2.17;;;22.70;99.90;;;;;;5003289;28;20537;-74
2022/07/14 01:20:23;;;;;;;2.70;2.03;;;22.80;99.90;;;;;;5000928;28;20459;-74
2022/07/14 01:22:51;;;;;;;2.37;2.27;;;22.70;99.90;;;;;;4993269;28;21017;-74
2022/07/14 01:25:20;;;;;;;4.33;2.23;;;22.80;99.90;;;;;;4986353;28;20455;-74
2022/07/14 01:27:47;;;;;;;2.50;2.30;;;22.70;99.90;;;;;;4993368;28;20549;-74
2022/07/14 01:30:14;;;;;;;5.93;2.40;;;22.70;99.90;;;;;;5009896;28;20450;-74
2022/07/14 01:32:41;;;;;;;2.60;2.40;;;22.70;99.90;;;;;;5009585;28;20574;-74
2022/07/14 01:35:09;;;;;;;4.63;2.43;;;22.70;99.90;;;;;;4993410;28;20463;-74
2022/07/14 01:37:36;;;;;;;3.03;2.43;;;22.70;99.90;;;;;;4993203;28;20451;-74
2022/07/14 01:40:05;;;;;;;3.70;2.80;;;22.70;99.90;;;;;;4994473;28;21014;-74
2022/07/14 01:42:32;;;;;;;3.90;2.40;;;22.70;99.90;;;;;;5005869;28;20873;-74
2022/07/14 01:44:58;;;;;;;3.70;2.70;;;22.70;99.90;;;;;;4996081;28;20447;-74
2022/07/14 01:47:26;;;;;;;2.43;2.23;;;22.70;99.90;;;;;;4992902;28;20483;-74
2022/07/14 01:49:52;;;;;;;5.00;2.60;;;22.70;99.90;;;;;;5000509;28;20970;-76
2022/07/14 01:52:19;;;;;;;7.30;2.30;;;22.70;99.90;;;;;;4997423;28;20482;-74
2022/07/14 01:54:46;;;;;;;8.93;2.63;;;22.70;99.90;;;;;;5003692;28;20976;-74
2022/07/14 01:57:14;;;;;;;6.67;2.93;;;22.60;99.90;;;;;;5011897;28;20553;-74
2022/07/14 01:59:41;;;;;;;3.10;2.20;;;22.50;99.90;;;;;;5007027;28;20450;-74
2022/07/14 02:02:08;;;;;;;3.23;2.77;;;22.50;99.90;;;;;;5008292;28;20450;-74
2022/07/14 02:04:34;;;;;;;2.80;2.60;;;22.40;99.90;;;;;;5003882;28;20454;-74
2022/07/14 02:07:01;;;;;;;2.50;2.30;;;22.40;99.90;;;;;;5001044;28;20581;-74
2022/07/14 02:12:14;;;;;;;3.03;2.63;;;22.40;99.90;;;;;;5006791;28;20435;-74
2022/07/14 02:14:42;;;;;;;5.00;2.67;;;22.30;99.90;;;;;;5001984;28;20479;-74
2022/07/14 02:17:09;;;;;;;4.03;2.70;;;22.30;99.90;;;;;;5001848;28;20513;-74
2022/07/14 02:19:36;;;;;;;7.83;2.40;;;22.40;99.90;;;;;;5005302;28;20478;-74
2022/07/14 02:22:04;;;;;;;2.50;2.30;;;22.30;99.90;;;;;;5000056;28;20458;-74
2022/07/14 02:24:31;;;;;;;4.33;2.20;;;22.20;99.90;;;;;;4992632;28;20459;-74
2022/07/14 02:26:58;;;;;;;2.67;2.43;;;22.20;99.90;;;;;;5000323;28;20548;-74
2022/07/14 02:29:24;;;;;;;7.43;2.40;;;22.10;99.90;;;;;;4989856;28;20450;-74
2022/07/14 02:31:52;;;;;;;2.30;2.10;;;22.10;99.90;;;;;;4997803;28;20451;-74
2022/07/14 02:34:19;;;;;;;2.90;2.63;;;22.00;99.90;;;;;;5010310;28;20875;-74
2022/07/14 02:36:47;;;;;;;4.10;2.33;;;22.00;99.90;;;;;;5000198;28;20850;-74
2022/07/14 02:39:14;;;;;;;4.03;2.33;;;22.00;99.90;;;;;;5007899;28;20455;-74
2022/07/14 02:41:41;;;;;;;2.53;2.37;;;22.00;99.90;;;;;;4992442;28;20542;-74
2022/07/14 02:44:08;;;;;;;2.83;2.63;;;21.90;99.90;;;;;;5003774;28;20541;-74
2022/07/14 02:46:35;;;;;;;9.87;4.70;;;21.90;99.90;;;;;;5001752;28;20486;-74
2022/07/14 02:49:03;;;;;;;2.83;2.37;;;21.90;99.90;;;;;;4992243;28;20451;-74
2022/07/14 02:51:30;;;;;;;3.50;2.30;;;21.80;99.90;;;;;;5010145;28;20957;-74
2022/07/14 02:53:56;;;;;;;2.60;2.40;;;21.80;99.90;;;;;;5006151;28;20454;-74
2022/07/14 02:56:23;;;;;;;4.10;2.20;;;21.70;99.90;;;;;;5003230;28;20889;-74
2022/07/14 02:58:50;;;;;;;5.83;2.57;;;21.70;99.90;;;;;;4999773;28;20462;-74
2022/07/14 03:01:17;;;;;;;5.30;2.80;;;21.70;99.90;;;;;;4993048;28;20466;-74
2022/07/14 03:03:44;;;;;;;2.97;2.77;;;21.70;99.90;;;;;;4996754;28;20461;-74
2022/07/14 03:06:14;;;;;;;4.80;2.70;;;21.60;99.90;;;;;;4991448;28;20983;-74
2022/07/14 03:08:40;;;;;;;3.10;2.87;;;21.40;99.90;;;;;;4993589;28;20455;-74
2022/07/14 03:11:08;;;;;;;5.03;3.00;;;21.50;99.90;;;;;;4999799;28;20520;-74
2022/07/14 03:13:36;;;;;;;3.53;2.33;;;21.50;99.90;;;;;;5007292;28;20450;-74
2022/07/14 03:16:03;;;;;;;5.17;2.90;;;21.40;99.90;;;;;;5002075;28;20471;-74
2022/07/14 03:18:30;;;;;;;2.77;2.57;;;21.40;99.90;;;;;;4991629;28;20478;-74
2022/07/14 03:20:56;;;;;;;3.00;2.80;;;21.30;99.90;;;;;;5003321;28;20882;-74
2022/07/14 03:23:24;;;;;;;2.90;2.70;;;21.30;99.90;;;;;;5005309;28;20843;-74
2022/07/14 03:25:51;;;;;;;5.17;3.20;;;21.30;99.90;;;;;;5004255;28;20832;-74
2022/07/14 03:28:18;;;;;;;5.67;3.10;;;21.20;99.90;;;;;;4991343;28;21061;-74
2022/07/14 03:30:44;;;;;;;3.40;3.07;;;21.20;99.90;;;;;;5002553;28;20454;-74
2022/07/14 03:33:11;;;;;;;4.60;3.60;;;21.10;99.90;;;;;;5004380;28;20459;-73
2022/07/14 03:35:38;;;;;;;5.00;2.90;;;21.10;99.90;;;;;;4990942;28;20522;-73
2022/07/14 03:38:05;;;;;;;5.13;3.60;;;21.00;99.90;;;;;;4994929;28;20955;-73
2022/07/14 03:40:34;;;;;;;9.70;3.20;;;20.90;99.90;;;;;;4993275;28;20459;-73
2022/07/14 03:43:01;;;;;;;3.67;3.30;;;20.80;99.90;;;;;;4991564;28;20451;-73
2022/07/14 03:45:28;;;;;;;4.43;3.30;;;20.70;99.90;;;;;;5001158;28;20994;-73
2022/07/14 03:47:55;;;;;;;9.73;3.30;;;20.60;99.90;;;;;;4995726;28;20930;-74
2022/07/14 03:50:21;;;;;;;4.53;3.37;;;20.50;99.90;;;;;;4995118;28;20451;-73
2022/07/14 03:52:48;;;;;;;3.40;3.10;;;20.50;99.90;;;;;;5002688;28;20458;-74
2022/07/14 03:55:15;;;;;;;7.23;3.20;;;20.40;99.90;;;;;;5005858;28;20453;-74
2022/07/14 03:57:43;;;;;;;5.40;2.90;;;20.40;99.90;;;;;;5002258;28;20521;-74
2022/07/14 04:00:10;;;;;;;4.97;3.70;;;20.30;99.90;;;;;;5002827;28;20805;-74
2022/07/14 04:02:37;;;;;;;5.07;3.37;;;20.30;99.90;;;;;;5004118;28;20455;-74
2022/07/14 04:05:05;;;;;;;3.53;3.23;;;20.30;99.90;;;;;;5002803;28;20459;-74
2022/07/14 04:07:31;;;;;;;4.20;3.37;;;20.20;99.90;;;;;;5000206;28;20528;-74
2022/07/14 04:09:58;;;;;;;3.83;3.43;;;20.20;99.90;;;;;;5001573;28;20451;-74
2022/07/14 04:12:25;;;;;;;5.13;3.40;;;20.30;99.90;;;;;;5002947;28;20890;-77
2022/07/14 04:14:53;;;;;;;3.83;3.40;;;20.30;99.90;;;;;;5012960;28;20454;-76
2022/07/14 04:17:19;;;;;;;5.90;3.87;;;20.30;99.90;;;;;;5000640;28;20475;-75
2022/07/14 04:19:46;;;;;;;4.13;3.53;;;20.30;99.90;;;;;;4997122;28;20451;-75
2022/07/14 04:22:12;;;;;;;3.90;3.17;;;20.30;99.90;;;;;;4989585;28;20459;-75
2022/07/14 04:24:41;;;;;;;9.30;3.90;;;20.40;99.90;;;;;;5011533;28;20465;-75
2022/07/14 04:27:07;;;;;;;3.40;3.10;;;20.50;99.90;;;;;;5002370;28;20491;-75
2022/07/14 04:29:34;;;;;;;5.20;3.17;;;20.60;99.90;;;;;;5002708;28;20954;-75
2022/07/14 04:32:02;;;;;;;10.73;3.90;;;20.60;99.90;;;;;;4994395;28;20951;-75
2022/07/14 04:34:29;;;;;;;6.00;3.73;;;20.70;99.90;;;;;;5005697;28;20455;-75
2022/07/14 04:36:55;;;;;;;4.30;3.47;;;20.60;99.90;;;;;;5003331;28;20479;-75
2022/07/14 04:39:22;;;;;;;3.70;3.40;;;20.70;99.90;;;;;;4996481;28;20455;-75
2022/07/14 04:41:49;;;;;;;3.90;3.60;;;20.70;99.90;;;;;;4991181;28;20521;-75
2022/07/14 04:44:16;;;;;;;3.57;3.27;;;20.80;99.90;;;;;;4992314;28;20467;-74
2022/07/14 04:46:42;;;;;;;3.60;3.30;;;20.70;99.90;;;;;;4993838;28;20888;-75
2022/07/14 04:52:03;;;;;;;3.33;3.13;;;20.70;99.90;;;;;;5006062;28;20442;-78
2022/07/14 04:54:30;;;;;;;4.50;3.17;;;20.60;99.90;;;;;;4995398;28;20845;-77
2022/07/14 04:56:57;;;;;;;18.03;3.73;;;20.50;99.90;;;;;;4997707;28;20489;-78
2022/07/14 04:59:24;;;;;;;3.63;3.40;;;20.50;99.90;;;;;;4998283;28;20459;-77
2022/07/14 05:01:51;;;;;;;4.53;3.40;;;20.40;99.90;;;;;;5001507;28;20451;-77
2022/07/14 05:04:19;;;;;;;3.63;3.33;;;20.50;99.90;;;;;;4999842;28;21012;-77
2022/07/14 05:06:49;;;;;;;5.27;3.60;;;20.50;99.90;;;;;;4994762;28;21040;-77
2022/07/14 05:09:17;;;;;;;8.80;4.13;;;20.50;99.90;;;;;;4996843;28;21011;-76
2022/07/14 05:11:44;;;;;;;9.60;3.50;;;20.60;99.90;;;;;;4994398;28;20502;-76
2022/07/14 05:14:10;;;;;;;4.30;3.63;;;20.60;99.90;;;;;;4994202;28;20450;-76
2022/07/14 05:16:38;;;;;;;5.10;3.63;;;20.50;99.90;;;;;;4993784;28;20467;-76
2022/07/14 05:19:04;;;;;;;6.80;4.43;;;20.50;99.90;;;;;;5001831;28;20866;-76
2022/07/14 05:21:33;;;;;;;9.33;5.13;;;20.50;99.90;;;;;;5001215;28;20512;-76
2022/07/14 05:23:59;;;;;;;7.90;5.50;;;20.60;99.90;;;;;;5001405;28;20512;-76
2022/07/14 05:26:26;;;;;;;10.83;5.60;;;20.60;99.90;;;;;;4988140;28;20537;-76
2022/07/14 05:28:53;;;;;;;6.07;5.33;;;20.60;99.90;;;;;;4994018;28;20569;-76
2022/07/14 05:31:20;;;;;;;8.80;5.87;;;20.60;99.90;;;;;;5004395;28;20446;-76
2022/07/14 05:33:47;;;;;;;9.27;5.87;;;20.70;99.90;;;;;;5004900;28;20506;-75
2022/07/14 05:36:13;;;;;;;6.27;5.40;;;20.80;99.90;;;;;;4985468;28;20537;-76
2022/07/14 05:38:41;;;;;;;11.93;5.87;;;20.80;99.90;;;;;;5008216;28;20454;-75
2022/07/14 05:41:08;;;;;;;5.67;5.07;;;20.90;99.90;;;;;;5000573;28;20455;-76
2022/07/14 05:43:35;;;;;;;5.63;5.10;;;21.00;99.90;;;;;;5007084;28;20446;-76
2022/07/14 05:46:04;;;;;;;5.53;4.40;;;21.00;99.90;;;;;;4997844;28;20475;-76
2022/07/14 05:48:31;;;;;;;5.80;4.90;;;21.00;99.90;;;;;;4993387;28;20487;-76
2022/07/14 05:51:07;;;;;;;6.17;4.60;;;21.10;99.90;;;;;;5001410;28;20454;-76
2022/07/14 05:53:33;;;;;;;6.43;5.13;;;21.10;99.90;;;;;;4993045;28;20510;-76
2022/07/14 05:56:02;;;;;;;5.90;4.50;;;21.20;99.90;;;;;;4995235;28;20475;-76
2022/07/14 05:58:28;;;;;;;6.13;4.17;;;21.30;99.90;;;;;;4998798;28;20463;-77
2022/07/14 06:00:55;;;;;;;5.83;4.30;;;21.40;99.90;;;;;;4993411;28;20513;-77
2022/07/14 06:03:21;;;;;;;10.73;5.17;;;21.40;99.90;;;;;;5006010;28;20446;-78
2022/07/14 06:05:48;;;;;;;7.90;4.90;;;21.50;99.90;;;;;;4996966;28;20475;-77
2022/07/14 06:08:15;;;;;;;10.10;4.60;;;21.50;99.90;;;;;;5000221;28;20483;-78
2022/07/14 06:10:42;;;;;;;4.77;4.13;;;21.60;99.90;;;;;;4993607;28;20460;-77
2022/07/14 06:13:10;;;;;;;11.87;5.27;;;21.70;99.90;;;;;;5002710;28;20502;-77
2022/07/14 06:15:36;;;;;;;6.20;4.67;;;21.80;99.90;;;;;;5010834;28;20520;-77
2022/07/14 06:18:03;;;;;;;4.87;4.47;;;21.90;99.90;;;;;;5000959;28;20854;-76
2022/07/14 06:20:30;;;;;;;6.40;4.30;;;21.90;99.90;;;;;;4996005;28;20450;-76
2022/07/14 06:22:56;;;;;;;7.17;3.97;;;22.00;99.90;;;;;;5004070;28;20504;-77
2022/07/14 06:25:23;;;;;;;4.37;3.97;;;22.10;99.90;;;;;;4990026;28;20478;-76
2022/07/14 06:27:50;;;;;;;4.67;4.27;;;22.20;99.90;;;;;;4990014;28;20486;-77
2022/07/14 06:30:18;;;;;;;4.40;4.00;;;22.30;99.90;;;;;;4992977;28;20462;-77
2022/07/14 06:32:44;;;;;;;10.43;4.80;;;22.30;99.90;;;;;;4991939;28;20455;-77
2022/07/14 06:35:12;;;;;;;4.87;4.20;;;22.30;99.90;;;;;;4990813;28;20506;-78
2022/07/14 06:37:39;;;;;;;16.33;4.90;;;22.20;99.90;;;;;;4992705;28;20455;-76
2022/07/14 06:40:07;;;;;;;6.07;4.37;;;22.20;99.90;;;;;;4988497;28;20532;-76
2022/07/14 06:42:34;;;;;;;7.97;4.40;;;22.20;99.90;;;;;;4988061;28;21113;-77
2022/07/14 06:45:01;;;;;;;5.60;4.40;;;22.30;99.90;;;;;;4983107;28;20470;-77
2022/07/14 06:47:30;;;;;;;7.80;5.00;;;22.30;99.90;;;;;;4988166;28;21354;-77
2022/07/14 06:49:57;;;;;;;8.10;4.13;;;22.20;99.90;;;;;;4987765;28;20509;-77
2022/07/14 06:52:24;;;;;;;7.87;4.57;;;22.20;99.90;;;;;;4988354;28;20463;-76
2022/07/14 06:54:51;;;;;;;5.23;4.60;;;22.10;99.90;;;;;;4985698;28;20623;-76
2022/07/14 06:57:19;;;;;;;6.30;5.63;;;22.30;99.90;;;;;;4986247;28;20471;-77
2022/07/14 06:59:46;;;;;;;7.43;4.77;;;22.30;99.90;;;;;;4987707;28;20550;-77
2022/07/14 07:02:12;;;;;;;6.17;4.70;;;22.30;99.90;;;;;;4987009;28;20451;-78
2022/07/14 07:04:41;;;;;;;5.37;4.87;;;22.40;99.90;;;;;;4985455;28;20557;-76
2022/07/14 07:07:06;;;;;;;9.23;4.80;;;22.30;99.90;;;;;;4987601;28;20479;-77
2022/07/14 07:09:33;;;;;;;9.03;4.57;;;22.40;99.90;;;;;;4987349;28;20483;-77
2022/07/14 07:12:00;;;;;;;10.57;5.47;;;22.30;99.90;;;;;;4987781;28;20621;-77
2022/07/14 07:14:27;;;;;;;8.53;5.47;;;22.30;99.90;;;;;;4985234;28;20463;-77
2022/07/14 07:16:53;;;;;;;9.70;5.40;;;22.30;99.90;;;;;;4986128;28;20463;-77
2022/07/14 07:19:20;;;;;;;9.17;5.07;;;22.40;99.90;;;;;;4979099;28;20875;-77
2022/07/14 07:21:48;;;;;;;8.47;5.30;;;22.30;99.90;;;;;;4977109;28;20543;-77
2022/07/14 07:24:15;;;;;;;9.53;5.50;;;22.40;99.90;;;;;;4976805;28;20460;-77
2022/07/14 07:26:42;;;;;;;6.40;4.73;;;22.30;99.90;;;;;;4976131;28;20475;-77
2022/07/14 07:29:09;;;;;;;12.50;5.53;;;22.40;99.90;;;;;;4974956;28;20479;-76
2022/07/14 07:31:37;;;;;;;7.40;5.10;;;22.50;99.90;;;;;;4974982;28;20463;-79
2022/07/14 07:34:04;;;;;;;6.70;5.63;;;22.60;99.90;;;;;;4976179;28;20464;-79
2022/07/14 07:36:31;;;;;;;7.77;5.70;;;22.60;99.90;;;;;;4976006;28;20534;-80
2022/07/14 07:38:59;;;;;;;5.83;4.80;;;22.70;99.90;;;;;;4977264;28;20534;-80
2022/07/14 07:41:26;;;;;;;12.63;5.00;;;22.60;99.90;;;;;;4975409;28;20466;-79
2022/07/14 07:43:53;;;;;;;6.10;4.77;;;22.60;99.90;;;;;;4976332;28;20546;-79
2022/07/14 07:46:20;;;;;;;13.80;5.53;;;22.60;99.90;;;;;;4978174;28;20476;-78
2022/07/14 07:48:47;;;;;;;9.50;5.17;;;22.70;99.90;;;;;;4978843;28;20483;-77
2022/07/14 07:51:13;;;;;;;8.70;5.30;;;22.80;99.90;;;;;;4975240;28;20466;-77
2022/07/14 07:53:43;;;;;;;8.10;5.30;;;22.90;99.90;;;;;;4977152;28;20460;-77
2022/07/14 07:56:11;;;;;;;7.47;5.20;;;22.90;99.90;;;;;;4980074;28;20480;-77
2022/07/14 07:58:38;;;;;;;6.10;4.80;;;22.90;99.90;;;;;;4978567;28;20487;-77
2022/07/14 08:01:05;;;;;;;8.07;5.10;;;23.20;99.90;;;;;;4977458;28;20477;-78
2022/07/14 08:03:32;;;;;;;10.00;4.60;;;23.20;99.90;;;;;;4977248;28;20514;-78
2022/07/14 08:05:59;;;;;;;6.30;4.20;;;23.20;99.90;;;;;;4980220;28;21030;-78
2022/07/14 08:08:25;;;;;;;9.27;4.60;;;23.30;99.90;;;;;;4978444;28;20486;-79
2022/07/14 08:10:52;;;;;;;5.80;4.80;;;23.40;99.90;;;;;;4980249;28;20840;-78
2022/07/14 08:13:20;;;;;;;8.57;5.00;;;23.40;99.90;;;;;;4978878;28;20452;-78
2022/07/14 08:15:47;;;;;;;5.07;4.63;;;23.40;99.90;;;;;;4977131;28;20898;-79
2022/07/14 08:18:13;;;;;;;6.53;5.00;;;23.50;99.90;;;;;;4979420;28;20444;-77
2022/07/14 08:20:40;;;;;;;11.03;5.23;;;23.70;99.90;;;;;;4978678;28;20459;-77
2022/07/14 08:23:07;;;;;;;12.87;5.67;;;23.90;99.90;;;;;;4980582;28;20463;-77
2022/07/14 08:25:34;;;;;;;13.37;5.23;;;24.00;99.90;;;;;;4978581;28;20579;-78
2022/07/14 08:28:00;;;;;;;9.03;4.77;;;24.10;99.90;;;;;;4979265;28;20903;-78
2022/07/14 08:30:28;;;;;;;6.43;4.90;;;24.10;99.90;;;;;;4980420;28;20957;-78
2022/07/14 08:32:55;;;;;;;9.20;5.10;;;24.10;99.90;;;;;;4980396;28;20502;-77
2022/07/14 08:35:24;;;;;;;8.83;5.00;;;24.10;99.90;;;;;;4980274;28;20482;-77
2022/07/14 08:37:51;;;;;;;5.03;4.50;;;24.10;99.90;;;;;;4980950;28;20460;-78
2022/07/14 08:40:24;;;;;;;10.70;5.07;;;24.20;99.90;;;;;;4978115;28;20478;-76
2022/07/14 08:42:52;;;;;;;9.30;5.10;;;24.10;99.90;;;;;;4976202;28;20515;-77
2022/07/14 08:45:21;;;;;;;6.50;4.73;;;24.00;99.90;;;;;;4973786;28;20456;-77
2022/07/14 08:47:50;;;;;;;5.47;4.60;;;24.10;99.90;;;;;;4979212;28;20471;-77
2022/07/14 08:50:18;;;;;;;8.80;4.73;;;24.10;99.90;;;;;;4976868;28;20462;-77
2022/07/14 08:52:46;;;;;;;5.57;5.07;;;24.10;99.90;;;;;;4978233;28;20502;-77
2022/07/14 08:55:15;;;;;;;4.83;4.43;;;24.30;99.90;;;;;;4977820;28;20452;-78
2022/07/14 08:57:43;;;;;;;8.00;4.87;;;24.50;99.90;;;;;;4976426;28;21844;-77
2022/07/14 09:00:12;;;;;;;8.40;4.67;;;24.50;99.90;;;;;;4979828;28;20486;-77
2022/07/14 09:02:40;;;;;;;13.23;5.07;;;24.40;99.90;;;;;;4979420;28;21557;-77
2022/07/14 09:05:09;;;;;;;8.13;4.60;;;24.20;99.90;;;;;;4977036;28;20506;-77
2022/07/14 09:07:37;;;;;;;4.40;4.00;;;24.10;99.90;;;;;;4974649;28;20697;-77
2022/07/14 09:10:06;;;;;;;10.70;5.03;;;24.10;99.90;;;;;;4978672;28;20495;-77
2022/07/14 09:12:35;;;;;;;7.30;4.60;;;23.90;99.90;;;;;;4977969;28;20944;-77
2022/07/14 09:17:53;;;;;;;9.83;5.30;;;23.90;99.90;;;;;;4978404;28;20439;-77
2022/07/14 09:20:22;;;;;;;5.50;5.00;;;23.90;99.90;;;;;;4976347;28;20455;-77
2022/07/14 09:22:53;;;;;;;8.03;4.50;;;23.90;99.90;;;;;;4978480;28;21032;-77
2022/07/14 09:25:20;;;;;;;8.53;5.50;;;24.10;99.90;;;;;;4976879;28;20531;-77
2022/07/14 09:27:47;;;;;;;8.37;5.37;;;24.00;99.90;;;;;;4977575;28;20494;-77
2022/07/14 09:30:15;;;;;;;13.17;5.70;;;24.10;99.90;;;;;;4975990;28;20491;-77
2022/07/14 09:32:43;;;;;;;9.70;5.13;;;24.30;99.90;;;;;;4979146;28;20487;-78
2022/07/14 09:35:11;;;;;;;5.67;4.90;;;24.40;99.90;;;;;;4977565;28;20456;-77
2022/07/14 09:37:40;;;;;;;5.97;5.00;;;24.60;99.90;;;;;;4977665;28;20836;-77
2022/07/14 09:40:11;;;;;;;6.70;4.30;;;24.50;99.90;;;;;;4977119;28;20539;-78
2022/07/14 09:42:52;;;;;;;11.33;4.90;;;24.80;99.90;;;;;;4976722;28;20464;-78
2022/07/14 09:45:20;;;;;;;7.97;5.03;;;25.20;99.90;;;;;;4978192;28;20460;-78
2022/07/14 09:48:02;;;;;;;6.20;4.20;;;25.80;99.90;;;;;;4977186;28;20462;-78
2022/07/14 09:50:37;;;;;;;6.00;4.50;;;26.30;99.90;;;;;;4974316;28;20512;-78
2022/07/14 09:53:19;;;;;;;8.00;4.60;;;26.50;99.90;;;;;;4978442;28;20458;-79
2022/07/14 09:55:53;;;;;;;7.20;4.70;;;26.70;99.90;;;;;;4965929;28;21054;-78
2022/07/14 09:58:20;;;;;;;6.35;4.22;;;27.10;99.90;;;;;;4978421;28;20533;-76
2022/07/14 10:00:58;;;;;;;9.23;4.00;;;27.30;99.90;;;;;;4976151;28;20196;-77
2022/07/14 10:03:28;;;;;;;12.03;5.10;;;27.50;99.90;;;;;;4977074;28;20506;-76
2022/07/14 10:05:56;;;;;;;9.67;5.03;;;27.50;99.90;;;;;;4976003;28;20479;-76
2022/07/14 10:08:27;;;;;;;6.10;4.60;;;27.60;99.90;;;;;;4975645;28;20535;-76
2022/07/14 10:10:55;;;;;;;6.13;4.43;;;27.90;99.90;;;;;;4976916;28;20452;-77
2022/07/14 10:13:24;;;;;;;5.60;5.07;;;28.30;99.90;;;;;;4976103;28;20452;-77
2022/07/14 10:15:52;;;;;;;6.90;4.93;;;28.60;99.90;;;;;;4976966;28;20468;-76
2022/07/14 10:18:20;;;;;;;8.67;4.33;;;28.60;99.90;;;;;;4978526;28;20452;-76
2022/07/14 10:20:49;;;;;;;6.43;4.53;;;28.70;99.90;;;;;;4976888;28;20534;-76
2022/07/14 10:23:17;;;;;;;11.90;5.00;;;28.60;99.90;;;;;;4974732;28;20462;-76
2022/07/14 10:25:46;;;;;;;4.90;4.10;;;28.60;99.90;;;;;;4977998;28;20869;-76
2022/07/14 10:28:14;;;;;;;5.47;4.37;;;28.50;99.90;;;;;;4976089;28;20460;-76
2022/07/14 10:30:49;;;;;;;23.17;4.70;;;28.40;99.90;;;;;;4977785;28;20510;-76
2022/07/14 10:33:23;;;;;;;6.83;4.20;;;28.70;99.90;;;;;;4977053;28;21292;-76
2022/07/14 10:35:57;;;;;;;5.10;3.90;;;28.90;99.90;;;;;;4977455;28;21022;-76
2022/07/14 10:38:33;;;;;;;8.80;4.03;;;29.10;99.90;;;;;;4975453;28;20566;-77
2022/07/14 10:41:11;;;;;;;6.83;4.03;;;29.20;99.90;;;;;;4976375;28;21196;-77
2022/07/14 10:43:55;;;;;;;7.00;4.10;;;29.40;99.90;;;;;;4976804;28;20972;-77
2022/07/14 10:46:39;;;;;;;4.27;3.87;;;29.60;99.90;;;;;;4976205;28;20475;-76
2022/07/14 10:49:07;;;;;;;9.33;3.90;;;29.70;99.90;;;;;;4977812;28;20534;-75
2022/07/14 10:51:35;;;;;;;9.77;4.17;;;29.60;99.90;;;;;;4976969;28;20488;-75
2022/07/14 10:54:07;;;;;;;8.50;3.50;;;29.40;99.90;;;;;;4975041;28;20506;-76
2022/07/14 10:56:36;;;;;;;4.83;3.63;;;29.60;99.90;;;;;;4975755;28;20569;-76
2022/07/14 10:59:33;;;;;;;4.83;3.70;;;29.70;99.90;;;;;;4974910;28;20446;-76
2022/07/14 11:02:35;;;;;;;4.10;3.60;;;29.80;99.90;;;;;;4917930;29;20978;-76
2022/07/14 11:05:11;;;;;;;8.13;3.93;;;29.90;99.90;;;;;;4973546;28;20976;-75
2022/07/14 11:07:42;;;;;;;4.10;3.03;;;30.10;99.90;;;;;;4975246;28;20482;-76
2022/07/14 11:10:46;;;;;;;4.83;3.23;;;30.30;99.90;;;;;;4974300;28;20476;-76
2022/07/14 11:13:17;;;;;;;3.67;3.33;;;30.60;99.90;;;;;;4974891;28;20459;-75
2022/07/14 11:15:45;;;;;;;6.77;3.50;;;31.00;99.90;;;;;;4975083;28;20471;-77
2022/07/14 11:18:31;;;;;;;9.07;3.37;;;30.80;99.90;;;;;;4976034;28;20447;-75
2022/07/14 11:21:01;;;;;;;4.17;3.77;;;30.30;99.90;;;;;;4977386;28;20547;-76
2022/07/14 11:23:30;;;;;;;7.90;3.57;;;29.90;99.90;;;;;;4979442;28;20482;-77
2022/07/14 11:25:58;;;;;;;4.40;3.23;;;29.80;99.90;;;;;;4979935;28;20480;-76
2022/07/14 11:28:42;;;;;;;13.90;7.93;;;29.90;99.90;;;;;;4978615;28;20558;-79
2022/07/14 11:31:11;;;;;;;7.60;3.33;;;29.90;99.90;;;;;;4978545;28;20938;-78
2022/07/14 11:36:17;;;;;;;4.83;3.00;;;29.70;99.90;;;;;;4975736;28;20453;-77
2022/07/14 11:36:28;;;;;;;5.10;3.17;;;29.50;99.90;;;;;;4976818;28;20460;-78
2022/07/14 11:39:24;;;;;;;4.00;3.43;;;29.30;99.90;;;;;;4977251;28;20455;-78
2022/07/14 11:41:54;;;;;;;4.03;3.20;;;29.00;99.90;;;;;;4973740;28;20462;-78
2022/07/14 11:44:47;;;;;;;5.80;3.37;;;28.80;99.90;;;;;;4973020;28;20506;-77
2022/07/14 11:47:19;;;;;;;3.60;2.90;;;28.80;99.90;;;;;;4973785;28;20484;-77
2022/07/14 11:49:55;;;;;;;4.87;2.70;;;29.00;99.20;;;;;;4978423;28;20892;-76
2022/07/14 11:52:27;;;;;;;5.50;2.70;;;29.50;98.50;;;;;;4974221;28;20532;-76
2022/07/14 11:54:54;;;;;;;9.67;2.73;;;29.70;96.40;;;;;;4978406;28;20455;-76
2022/07/14 11:57:21;;;;;;;5.17;2.53;;;29.80;96.90;;;;;;4977128;28;20524;-75
2022/07/14 11:59:50;;;;;;;6.70;2.60;;;29.40;94.90;;;;;;4977680;28;20466;-76
2022/07/14 12:02:20;;;;;;;2.90;2.20;;;29.50;95.60;;;;;;4972967;28;20454;-76
2022/07/14 12:04:52;;;;;;;4.13;2.30;;;29.60;94.80;;;;;;4977126;28;20449;-75
2022/07/14 12:07:19;;;;;;;2.90;2.70;;;29.60;93.60;;;;;;4978117;28;21105;-76
2022/07/14 12:09:47;;;;;;;3.40;2.20;;;29.60;94.20;;;;;;4976520;28;20530;-76
2022/07/14 12:12:16;;;;;;;2.47;2.27;;;29.50;93.00;;;;;;4977006;28;20880;-76
2022/07/14 12:14:47;;;;;;;3.40;2.33;;;29.20;92.30;;;;;;4977626;28;20453;-76
2022/07/14 12:17:16;;;;;;;2.17;2.00;;;29.10;91.50;;;;;;4976915;28;21014;-76
2022/07/14 12:19:42;;;;;;;2.70;2.00;;;29.00;91.30;;;;;;4977885;28;20451;-76
2022/07/14 12:22:09;;;;;;;5.27;2.80;;;28.70;90.80;;;;;;4975851;28;20504;-76
2022/07/14 12:24:36;;;;;;;7.83;2.47;;;28.40;90.80;;;;;;4976091;28;20467;-76
2022/07/14 12:27:05;;;;;;;8.40;2.30;;;28.10;90.90;;;;;;4976115;28;20482;-76
2022/07/14 12:29:33;;;;;;;13.80;2.80;;;27.90;91.20;;;;;;4979730;28;20499;-76
2022/07/14 12:32:01;;;;;;;3.73;2.43;;;27.70;91.20;;;;;;4977269;28;20465;-76
2022/07/14 12:34:29;;;;;;;4.53;2.10;;;27.40;91.70;;;;;;4978438;28;20451;-76
2022/07/14 12:36:58;;;;;;;4.30;2.33;;;27.20;91.70;;;;;;4977087;28;20475;-76
2022/07/14 12:39:25;;;;;;;7.23;2.30;;;27.10;92.10;;;;;;4977311;28;20513;-76
2022/07/14 12:41:52;;;;;;;3.07;2.43;;;26.90;92.60;;;;;;4979603;28;20491;-76
2022/07/14 12:44:19;;;;;;;5.13;2.20;;;26.70;92.70;;;;;;4978140;28;20467;-76
2022/07/14 12:46:46;;;;;;;3.53;2.70;;;26.70;93.20;;;;;;4978069;28;20554;-76
2022/07/14 12:49:12;;;;;;;4.63;2.50;;;26.50;93.40;;;;;;4975846;28;20877;-76
2022/07/14 12:51:43;;;;;;;3.13;2.50;;;26.40;94.00;;;;;;4979020;28;20460;-76
2022/07/14 12:54:11;;;;;;;3.23;2.73;;;26.30;94.30;;;;;;4978540;28;20517;-76
2022/07/14 12:56:45;;;;;;;7.10;3.10;;;26.20;95.20;;;;;;4978443;28;20839;-75
2022/07/14 12:59:15;;;;;;;3.70;2.90;;;26.10;95.70;;;;;;4979322;28;20459;-75
2022/07/14 13:01:51;;;;;;;7.03;2.90;;;26.00;96.60;;;;;;4978738;28;20530;-75